Latest Weather Observations for West Wyalong

IDN60801

Issued at 9:52 pm EDT Saturday 23 February 2019 (issued every 10 minutes, with the page automatically refreshed every 10 minutes)

About weather observations | Map of weather stations | Latest weather observations for NSW | Other Formats
Station Details ID: 050017 Name: WEST WYALONG AIRPORT AWS Lat: -33.94 Lon: 147.20 Height: 257.0 m
Data from the previous 72 hours. | See also: Recent months at West Wyalong
Date/Time
EDT
Temp
°C
App
Temp
°C
Dew
Point
°C
Rel
Hum
%
Delta-T
°C
Wind Press
QNH
hPa
Press
MSL
hPa
Rain since
9am
mm
Dir  Spd
km/h
Gust
km/h
Spd
kts
Gust
kts
23/09:30pm 25.9 20.4 1.9 21 11.7 E 20 28 11 15 1022.1 1020.7 0.0
23/09:00pm 26.6 20.5 0.4 18 12.4 E 22 30 12 16 1021.7 1020.3 0.0
23/08:30pm 27.3 21.5 0.1 17 12.9 E 20 30 11 16 1021.3 1019.9 0.0
23/08:00pm 28.0 21.3 1.5 18 12.9 E 26 39 14 21 1020.7 1019.4 0.0
23/07:30pm 29.0 22.3 1.5 17 13.5 ESE 26 37 14 20 1020.3 1019.0 0.0
23/07:00pm 29.9 23.2 1.4 16 14.1 ESE 26 35 14 19 1019.8 1018.4 0.0
23/06:30pm 30.4 23.6 0.9 15 14.5 ESE 26 33 14 18 1019.6 1018.2 0.0
23/06:00pm 31.1 25.2 -0.5 13 15.2 ESE 20 32 11 17 1019.3 1017.9 0.0
23/05:30pm 31.4 24.5 -2.6 11 15.9 SE 24 33 13 18 1019.3 1017.9 0.0
23/05:00pm 31.2 24.8 -1.5 12 15.5 SE 22 32 12 17 1019.4 1018.0 0.0
23/04:30pm 31.4 24.7 -1.4 12 15.6 ESE 24 37 13 20 1019.4 1018.0 0.0
23/04:00pm 31.4 25.6 -0.3 13 15.3 E 20 35 11 19 1019.6 1018.2 0.0
23/03:30pm 30.8 24.8 1.2 15 14.7 SE 22 35 12 19 1019.9 1018.5 0.0
23/03:00pm 30.2 24.1 0.7 15 14.4 SE 22 30 12 16 1020.3 1019.0 0.0
23/02:30pm 30.3 25.6 3.4 18 13.8 ESE 17 28 9 15 1020.6 1019.3 0.0
23/02:00pm 29.2 24.1 4.0 20 12.9 SE 20 30 11 16 1021.0 1019.7 0.0
23/01:30pm 29.1 24.1 4.6 21 12.7 SE 20 28 11 15 1021.3 1019.9 0.0
23/01:00pm 27.9 23.1 4.9 23 11.9 ESE 19 32 10 17 1021.7 1020.3 0.0
23/12:30pm 27.5 22.9 5.7 25 11.4 E 19 30 10 16 1022.0 1020.6 0.0
23/12:00pm 26.4 21.8 6.4 28 10.5 E 20 30 11 16 1022.3 1020.9 0.0
23/11:30am 25.1 21.0 8.6 35 9.0 E 20 30 11 16 1022.7 1021.3 0.0
23/11:00am 24.2 20.3 8.6 37 8.4 ENE 19 30 10 16 1022.8 1021.4 0.0
23/10:30am 22.9 19.6 9.7 43 7.2 E 17 24 9 13 1022.9 1021.5 0.0
23/10:00am 22.0 18.9 10.2 47 6.5 E 17 24 9 13 1022.8 1021.4 0.0
23/09:30am 20.9 17.7 10.1 50 5.9 ENE 17 24 9 13 1022.7 1021.3 0.0
23/09:00am 20.1 17.1 10.5 54 5.2 E 17 20 9 11 1022.5 1021.1 0.0
23/08:30am 19.1 15.7 10.6 58 4.6 E 19 24 10 13 1022.3 1020.9 0.0
23/08:00am 18.0 15.0 10.6 62 4.0 E 17 22 9 12 1022.1 1020.7 0.0
23/07:30am 17.1 14.8 10.5 65 3.6 E 13 17 7 9 1021.8 1020.4 0.0
23/07:00am 16.4 14.4 10.3 67 3.3 E 11 17 6 9 1021.5 1020.1 0.0
23/06:30am 16.8 14.4 10.2 65 3.5 E 13 17 7 9 1021.2 1019.8 0.0
23/06:00am 17.3 15.3 10.2 63 3.8 E 11 15 6 8 1020.8 1019.5 0.0
23/05:30am 17.6 14.9 10.2 62 4.0 E 15 20 8 11 1020.4 1019.1 0.0
23/05:00am 17.9 15.2 10.3 61 4.1 E 15 20 8 11 1020.2 1018.9 0.0
23/04:30am 18.1 15.7 10.2 60 4.3 E 13 20 7 11 1020.0 1018.7 0.0
23/04:00am 18.5 15.7 10.1 58 4.5 E 15 20 8 11 1020.0 1018.7 0.0
23/03:30am 19.1 16.3 10.1 56 4.9 E 15 19 8 10 1020.0 1018.7 0.0
23/03:00am 19.7 16.5 10.1 54 5.2 E 17 22 9 12 1020.0 1018.7 0.0
23/02:30am 20.2 16.6 10.0 52 5.5 E 19 24 10 13 1019.9 1018.5 0.0
23/02:00am 20.8 17.1 10.0 50 5.9 E 20 26 11 14 1020.0 1018.7 0.0
23/01:30am 21.5 17.7 9.7 47 6.4 E 20 28 11 15 1020.0 1018.7 0.0
23/01:00am 22.3 18.5 7.7 39 7.7 E 17 22 9 12 1019.8 1018.4 0.0
23/12:30am 22.8 19.3 7.0 36 8.3 ESE 15 20 8 11 1019.8 1018.4 0.0
23/12:00am 23.0 19.7 6.3 34 8.6 E 13 17 7 9 1019.6 1018.2 0.0
 
Date/Time
EDT
Temp
°C
App
Temp
°C
Dew
Point
°C
Rel
Hum
%
Delta-T
°C
Wind Press
QNH
hPa
Press
MSL
hPa
Rain since
9am
mm
Dir  Spd
km/h
Gust
km/h
Spd
kts
Gust
kts
22/11:30pm 23.4 20.4 6.2 33 8.9 E 11 13 6 7 1019.5 1018.1 0.0
22/11:00pm 24.4 21.5 6.6 32 9.3 E 11 17 6 9 1019.5 1018.1 0.0
22/10:30pm 24.6 21.8 6.8 32 9.4 E 11 15 6 8 1019.4 1018.0 0.0
22/10:00pm 25.6 22.5 7.2 31 9.8 E 13 17 7 9 1019.1 1017.7 0.0
22/09:30pm 26.3 23.6 7.4 30 10.1 E 11 17 6 9 1018.7 1017.3 0.0
22/09:00pm 27.2 23.8 7.6 29 10.6 ENE 15 22 8 12 1018.3 1016.9 0.0
22/08:30pm 28.1 24.6 7.4 27 11.2 ENE 15 20 8 11 1017.9 1016.5 0.0
22/08:00pm 28.7 25.4 7.9 27 11.4 ENE 15 19 8 10 1017.4 1016.0 0.0
22/07:30pm 29.5 25.4 8.0 26 11.9 E 19 26 10 14 1017.2 1015.8 0.0
22/07:00pm 30.3 26.2 8.7 26 12.1 E 20 28 11 15 1016.9 1015.6 0.0
22/06:30pm 30.9 26.9 9.2 26 12.3 ESE 20 28 11 15 1016.8 1015.5 0.0
22/06:00pm 30.9 26.8 8.6 25 12.5 SE 20 30 11 16 1016.7 1015.4 0.0
22/05:30pm 31.4 28.3 9.0 25 12.7 SE 15 26 8 14 1016.7 1015.4 0.0
22/05:00pm 31.4 28.1 9.6 26 12.4 SSE 17 32 9 17 1016.9 1015.6 0.0
22/04:30pm 31.0 26.7 9.3 26 12.3 SSE 22 35 12 19 1017.2 1015.8 0.0
22/04:00pm 30.6 25.6 9.5 27 12.0 ESE 26 37 14 20 1017.3 1015.9 0.0
22/03:30pm 31.2 27.5 10.0 27 12.2 SSE 20 30 11 16 1017.6 1016.2 0.0
22/03:00pm 30.5 27.6 11.0 30 11.3 S 17 32 9 17 1017.8 1016.4 0.0
22/02:30pm 30.2 27.0 11.2 31 11.1 ESE 19 28 10 15 1018.2 1016.8 0.0
22/02:00pm 30.0 26.5 11.0 31 11.0 SE 20 32 11 17 1018.5 1017.1 0.0
22/01:30pm 29.8 27.5 11.8 33 10.6 E 15 35 8 19 1018.6 1017.2 0.0
22/01:00pm 28.4 26.0 11.5 35 9.8 SE 15 24 8 13 1018.9 1017.5 0.0
22/12:30pm 27.1 24.4 11.6 38 9.0 ESE 17 26 9 14 1019.3 1017.9 0.0
22/12:00pm 26.8 25.1 12.5 41 8.4 ENE 13 19 7 10 1019.5 1018.1 0.0
22/11:30am 25.8 23.4 12.6 44 7.7 E 17 26 9 14 1019.8 1018.4 0.0
22/11:00am 25.7 23.6 13.5 46 7.2 E 17 26 9 14 1019.8 1018.4 0.0
22/10:30am 24.4 21.5 13.0 49 6.7 E 20 28 11 15 1019.8 1018.4 0.0
22/10:00am 23.7 21.0 13.0 51 6.2 E 19 28 10 15 1019.6 1018.2 0.0
22/09:30am 22.9 20.4 13.4 55 5.6 E 19 26 10 14 1019.7 1018.3 0.0
22/09:00am 21.7 18.9 13.1 58 5.0 E 20 30 11 16 1019.7 1018.3 0.0
22/08:30am 20.8 17.9 13.0 61 4.5 ESE 20 30 11 16 1019.6 1018.2 0.0
22/08:00am 19.8 17.1 13.0 65 3.9 E 19 24 10 13 1019.4 1018.0 0.0
22/07:30am 18.9 16.6 12.9 68 3.4 ESE 17 22 9 12 1019.2 1017.8 0.0
22/07:00am 18.4 16.0 12.8 70 3.2 ESE 17 22 9 12 1018.9 1017.5 0.0
22/06:30am 18.5 16.2 12.9 70 3.2 ESE 17 22 9 12 1018.5 1017.1 0.0
22/06:00am 18.7 16.4 12.9 69 3.3 ESE 17 20 9 11 1018.1 1016.7 0.0
22/05:30am 19.0 16.4 13.2 69 3.3 ESE 19 24 10 13 1017.8 1016.4 0.0
22/05:00am 19.1 16.5 13.1 68 3.4 ESE 19 24 10 13 1017.7 1016.3 0.0
22/04:30am 19.5 16.9 13.2 67 3.6 ESE 19 26 10 14 1017.5 1016.1 0.0
22/04:00am 19.8 17.3 13.5 67 3.6 ESE 19 26 10 14 1017.6 1016.2 0.0
22/03:30am 20.3 17.6 13.5 65 3.9 E 20 26 11 14 1017.3 1015.9 0.0
22/03:00am 20.9 18.8 13.6 63 4.2 ESE 17 20 9 11 1017.3 1015.9 0.0
22/02:30am 21.6 19.2 13.8 61 4.6 ESE 19 22 10 12 1017.1 1015.7 0.0
22/02:00am 21.6 20.7 13.8 61 4.6 SE 11 13 6 7 1017.1 1015.7 0.0
22/01:30am 22.5 21.5 13.3 56 5.4 ESE 11 17 6 9 1016.9 1015.6 0.0
22/01:00am 23.0 21.2 13.2 54 5.7 ESE 15 19 8 10 1017.1 1015.7 0.0
22/12:30am 23.8 19.6 5.7 31 9.3 SE 17 24 9 13 1016.8 1015.5 0.0
22/12:00am 24.7 19.7 1.6 22 11.0 S 17 24 9 13 1016.6 1015.3 0.0
 
Date/Time
EDT
Temp
°C
App
Temp
°C
Dew
Point
°C
Rel
Hum
%
Delta-T
°C
Wind Press
QNH
hPa
Press
MSL
hPa
Rain since
9am
mm
Dir  Spd
km/h
Gust
km/h
Spd
kts
Gust
kts
21/11:30pm 24.6 20.9 2.1 23 10.9 SSW 11 15 6 8 1015.9 1014.5 0.0
21/11:00pm 24.6 20.9 2.1 23 10.9 SSW 11 13 6 7 1015.8 1014.4 0.0
21/10:30pm 25.1 20.9 1.9 22 11.2 SW 13 17 7 9 1015.7 1014.3 0.0
21/10:00pm 25.9 21.6 1.2 20 11.8 SSW 13 17 7 9 1015.5 1014.1 0.0
21/09:30pm 26.6 21.8 0.4 18 12.4 SSW 15 19 8 10 1015.2 1013.8 0.0
21/09:00pm 27.4 22.6 0.2 17 12.9 SSW 15 20 8 11 1014.9 1013.5 0.0
21/08:30pm 28.2 22.4 0.0 16 13.5 SSW 20 26 11 14 1014.6 1013.2 0.0
21/08:00pm 29.1 22.5 -0.1 15 14.0 SSW 24 33 13 18 1014.2 1012.8 0.0
21/07:30pm 30.2 24.4 -0.2 14 14.7 SSW 20 30 11 16 1013.9 1012.5 0.0
21/07:00pm 30.9 25.0 3.8 18 14.1 SSW 24 35 13 19 1013.6 1012.2 0.0
21/06:30pm 31.4 26.3 5.8 20 13.8 SSW 22 32 12 17 1013.4 1012.0 0.0
21/06:00pm 31.8 25.8 5.3 19 14.2 SSW 26 35 14 19 1013.3 1011.9 0.0
21/05:30pm 32.0 27.5 7.0 21 13.7 S 20 32 11 17 1013.2 1011.8 0.0
21/05:00pm 31.8 27.8 8.1 23 13.3 SSW 19 30 10 16 1013.1 1011.6 0.0
21/04:30pm 32.4 28.7 8.0 22 13.7 S 17 30 9 16 1013.2 1011.8 0.0
21/04:00pm 31.9 29.1 10.0 26 12.6 ESE 15 26 8 14 1013.3 1011.9 0.0
21/03:30pm 32.0 28.3 10.1 26 12.7 SE 20 30 11 16 1013.6 1012.2 0.0
21/03:00pm 31.9 28.7 10.0 26 12.6 S 17 26 9 14 1014.2 1012.8 0.0
21/02:30pm 30.8 28.3 9.6 27 12.1 ESE 13 24 7 13 1014.5 1013.1 0.0
21/02:00pm 29.7 27.0 10.3 30 11.1 SSW 15 28 8 15 1015.0 1013.6 0.0
21/01:30pm 29.8 26.9 10.9 31 10.9 SSE 17 26 9 14 1015.3 1013.9 0.0
21/01:00pm 28.7 25.9 8.4 28 11.2 SE 13 20 7 11 1015.5 1014.1 0.0
21/12:30pm 28.8 26.9 11.8 35 9.9 S 13 26 7 14 1015.9 1014.5 0.0
21/12:00pm 27.7 26.9 14.0 43 8.3 ENE 11 20 6 11 1016.2 1014.8 0.0
21/11:30am 26.5 26.4 13.9 45 7.6 SE 7 17 4 9 1016.3 1014.9 0.0
21/11:00am 25.8 25.5 14.3 49 6.9 SSE 9 19 5 10 1016.3 1014.9 0.0
21/10:30am 24.9 23.7 14.1 51 6.5 SE 13 20 7 11 1016.5 1015.1 0.0
21/10:00am 24.0 22.6 14.4 55 5.7 SE 15 20 8 11 1016.2 1014.8 0.0
21/09:30am 22.6 20.8 13.4 56 5.4 SE 15 20 8 11 1016.1 1014.7 0.0
21/09:00am 21.5 19.0 12.4 56 5.2 SSE 17 22 9 12 1016.0 1014.6 0.0
21/08:30am 20.4 18.0 11.3 56 5.1 S 15 20 8 11 1015.7 1014.3 0.0
21/08:00am 19.2 17.2 10.2 56 4.9 SSW 11 15 6 8 1015.2 1013.8 0.0
21/07:30am 17.5 15.2 7.5 52 5.1 SSW 9 15 5 8 1015.0 1013.6 0.0
21/07:00am 16.5 14.0 6.6 52 4.9 SSW 9 13 5 7 1014.6 1013.2 0.0
21/06:30am 17.0 13.6 5.9 48 5.5 SSW 13 17 7 9 1014.3 1012.9 0.0
21/06:00am 16.7 13.6 5.6 48 5.4 SW 11 13 6 7 1014.1 1012.7 0.0
21/05:30am 17.1 14.0 5.7 47 5.6 SW 11 17 6 9 1013.9 1012.5 0.0
21/05:00am 17.3 14.2 5.6 46 5.7 SSW 11 15 6 8 1013.6 1012.2 0.0
21/04:30am 18.1 14.7 5.7 44 6.1 SSW 13 15 7 8 1013.6 1012.2 0.0
21/04:00am 18.1 14.9 5.3 43 6.3 SSW 11 15 6 8 1013.4 1012.0 0.0
21/03:30am 18.8 15.2 4.9 40 6.8 SSW 13 15 7 8 1013.5 1012.1 0.0
21/03:00am 19.1 15.8 4.8 39 7.0 SSW 11 15 6 8 1013.6 1012.2 0.0
21/02:30am 19.6 15.9 4.5 37 7.4 SSW 13 17 7 9 1013.5 1012.1 0.0
21/02:00am 19.8 15.7 4.3 36 7.5 SW 15 17 8 9 1013.5 1012.1 0.0
21/01:30am 19.5 15.7 4.0 36 7.5 SW 13 17 7 9 1013.7 1012.3 0.0
21/01:00am 19.6 16.0 2.9 33 7.9 SW 11 15 6 8 1013.8 1012.4 0.0
21/12:30am 20.0 16.4 2.8 32 8.1 SW 11 13 6 7 1013.8 1012.4 0.0
21/12:00am 20.7 16.6 2.5 30 8.6 SW 13 17 7 9 1013.7 1012.3 0.0
 
Date/Time
EDT
Temp
°C
App
Temp
°C
Dew
Point
°C
Rel
Hum
%
Delta-T
°C
Wind Press
QNH
hPa
Press
MSL
hPa
Rain since
9am
mm
Dir  Spd
km/h
Gust
km/h
Spd
kts
Gust
kts
20/11:30pm 21.3 17.5 1.6 27 9.2 SSW 11 15 6 8 1013.6 1012.2 0.0
20/11:00pm 21.7 17.0 0.8 25 9.6 SSW 15 20 8 11 1013.4 1012.0 0.0
20/10:30pm 22.1 17.3 0.0 23 10.1 SSW 15 22 8 12 1013.4 1012.0 0.0
20/10:00pm 22.3 18.0 0.8 24 10.0 SW 13 17 7 9 1013.3 1011.9 0.0

Other formats

Comma delimited format used in spreadsheet applications
http://www.bom.gov.au/fwo/IDN60801/IDN60801.95709.axf

JavaScript Object Notation format (JSON) in row-major order
http://www.bom.gov.au/fwo/IDN60801/IDN60801.95709.json

Data quality

Most of these data are generated automatically and are frequently updated. Quality checks on data are not normally performed. It is possible for incorrect values to appear. Refer to information at About Latest Weather Observations and please check the disclaimer before using these data.